Estación de Negrete
Ultimos registro cada 15 minutos 95
| N° | Estación | Fecha / Hora | Temperatura | Humedad | Lluvia | Velocidad | Dirección | Radiación | Presion |
| 95 | Negrete | 05-05-2026 23:30 | 13,1 | 98,9 | 1 | 1 | 18 | 0,6 | 1000,4 |
| 94 | Negrete | 05-05-2026 23:15 | 13,1 | 99,1 | 1,8 | 1 | 22 | 0,6 | 1000,6 |
| 93 | Negrete | 05-05-2026 23:00 | 13,1 | 99,3 | 2,2 | 0 | 161 | 0,6 | 1000,7 |
| 92 | Negrete | 05-05-2026 22:45 | 13,2 | 99,2 | 1,2 | 0 | 223 | 0,6 | 1001 |
| 91 | Negrete | 05-05-2026 22:30 | 13,2 | 99,1 | 7,2 | 0,5 | 223 | 0,6 | 1001,5 |
| 90 | Negrete | 05-05-2026 22:15 | 13,5 | 99,2 | 2 | 1 | 236 | 0,6 | 1002,5 |
| 89 | Negrete | 05-05-2026 22:00 | 13,4 | 99,2 | 0 | 0 | 32 | 0,6 | 1001,1 |
| 88 | Negrete | 05-05-2026 21:45 | 13,4 | 99,1 | 0 | 0 | 277 | 0,6 | 1000,4 |
| 87 | Negrete | 05-05-2026 21:30 | 13,4 | 99,1 | 0,6 | 0 | 271 | 0,6 | 1000,9 |
| 86 | Negrete | 05-05-2026 21:15 | 13,5 | 99,1 | 0,8 | 0 | 271 | 0,6 | 1001 |
| 85 | Negrete | 05-05-2026 21:00 | 13,5 | 99 | 0,6 | 0 | 277 | 0,6 | 1000,8 |
| 84 | Negrete | 05-05-2026 20:45 | 13,5 | 99 | 1,8 | 0 | 244 | 0,6 | 1000,9 |
| 83 | Negrete | 05-05-2026 20:30 | 13,6 | 98,9 | 3,2 | 0 | 240 | 0,6 | 1001,1 |
| 82 | Negrete | 05-05-2026 20:15 | 13,6 | 98,9 | 4,4 | 0 | 22 | 0,6 | 1001,1 |
| 81 | Negrete | 05-05-2026 20:00 | 13,7 | 98,7 | 0,6 | 0 | 253 | 0,6 | 1002,2 |
| 80 | Negrete | 05-05-2026 19:45 | 13,7 | 98,5 | 0,8 | 0 | 272 | 0,6 | 1000,9 |
| 79 | Negrete | 05-05-2026 19:30 | 13,7 | 98,4 | 0,2 | 0 | 336 | 0,6 | 1001,4 |
| 78 | Negrete | 05-05-2026 19:15 | 13,8 | 98,5 | 0,2 | 0 | 358 | 0,6 | 1000,8 |
| 77 | Negrete | 05-05-2026 19:00 | 13,9 | 98,2 | 0,2 | 0 | 326 | 0,6 | 1001,3 |
| 76 | Negrete | 05-05-2026 18:45 | 14 | 98,1 | 0,2 | 0 | 306 | 0,6 | 1001,3 |
| 75 | Negrete | 05-05-2026 18:30 | 14,1 | 97,9 | 0 | 0 | 278 | 0,6 | 1001,3 |
| 74 | Negrete | 05-05-2026 18:15 | 14,1 | 97,6 | 0 | 0 | 334 | 0,6 | 1001,3 |
| 73 | Negrete | 05-05-2026 18:00 | 14,2 | 97,5 | 0 | 0 | 358 | 0,6 | 1001,1 |
| 72 | Negrete | 05-05-2026 17:45 | 14,3 | 97,4 | 0 | 0 | 3 | 0,6 | 1001 |
| 71 | Negrete | 05-05-2026 17:30 | 14,3 | 97,5 | 0 | 0 | 3 | 6,9 | 1000,8 |
| 70 | Negrete | 05-05-2026 17:15 | 14,5 | 97,4 | 0,2 | 0 | 355 | 5,6 | 1000,9 |
| 69 | Negrete | 05-05-2026 17:00 | 14,6 | 97,1 | 0 | 0 | 17 | 29,4 | 1000,9 |
| 68 | Negrete | 05-05-2026 16:45 | 14,7 | 97,1 | 0,2 | 0 | 35 | 24,4 | 1001,2 |
| 67 | Negrete | 05-05-2026 16:30 | 14,8 | 96,3 | 0 | 0 | 38 | 23,1 | 1001 |
| 66 | Negrete | 05-05-2026 16:15 | 14,9 | 94,4 | 0 | 0 | 38 | 18,1 | 1001,1 |
| 65 | Negrete | 05-05-2026 16:00 | 15,2 | 94 | 0 | 0 | 38 | 14,4 | 1000,8 |
| 64 | Negrete | 05-05-2026 15:45 | 15,3 | 92,7 | 0 | 0 | 338 | 23,1 | 1000,7 |
| 63 | Negrete | 05-05-2026 15:30 | 15,5 | 92,4 | 0 | 0 | 323 | 30,6 | 1000,6 |
| 62 | Negrete | 05-05-2026 15:15 | 15,9 | 89,7 | 0 | 0 | 331 | 23,1 | 1000,6 |
| 61 | Negrete | 05-05-2026 15:00 | 16,2 | 88,8 | 0 | 0 | 354 | 55,6 | 1000,5 |
| 60 | Negrete | 05-05-2026 14:45 | 16,4 | 87,2 | 0 | 0 | 330 | 63,1 | 1000,5 |
| 59 | Negrete | 05-05-2026 14:30 | 16,5 | 88,1 | 0 | 0 | 324 | 114,4 | 1000,5 |
| 58 | Negrete | 05-05-2026 14:15 | 16,7 | 85,8 | 0 | 0 | 320 | 171,9 | 1000,1 |
| 57 | Negrete | 05-05-2026 14:00 | 16,4 | 90,1 | 0 | 0 | 10 | 168,1 | 1000,3 |
| 56 | Negrete | 05-05-2026 13:45 | 16,3 | 88 | 0 | 0 | 354 | 194,4 | 1000,5 |
| 55 | Negrete | 05-05-2026 13:30 | 15,5 | 89,9 | 0 | 0 | 236 | 138,1 | 1000,7 |
| 54 | Negrete | 05-05-2026 13:15 | 15,8 | 87,5 | 0 | 0 | 14 | 100,6 | 1000,8 |
| 53 | Negrete | 05-05-2026 13:00 | 16,2 | 89,3 | 0 | 0 | 15 | 191,9 | 1000,6 |
| 52 | Negrete | 05-05-2026 12:45 | 15,6 | 93 | 0 | 0 | 7 | 389,4 | 1001,1 |
| 51 | Negrete | 05-05-2026 12:30 | 14,4 | 93,7 | 0 | 0 | 350 | 121,9 | 1001,3 |
| 50 | Negrete | 05-05-2026 12:15 | 14,6 | 93,8 | 0 | 0,5 | 20 | 201,9 | 1000,7 |
| 49 | Negrete | 05-05-2026 12:00 | 14,9 | 95 | 0 | 0,5 | 28 | 249,4 | 1000,9 |
| 48 | Negrete | 05-05-2026 11:45 | 14,2 | 97,1 | 0 | 0,5 | 27 | 195,6 | 1000,7 |
| 47 | Negrete | 05-05-2026 11:30 | 13,9 | 98,1 | 0 | 0 | 25 | 141,9 | 1001,1 |
| 46 | Negrete | 05-05-2026 11:15 | 13,8 | 98,9 | 0 | 0 | 15 | 93,1 | 1001,6 |
| 45 | Negrete | 05-05-2026 11:00 | 13,6 | 99,1 | 0 | 0 | 312 | 88,1 | 1002,1 |
| 44 | Negrete | 05-05-2026 10:45 | 13,6 | 99,5 | 0 | 0 | 298 | 120,6 | 1002,3 |
| 43 | Negrete | 05-05-2026 10:30 | 13,1 | 99,5 | 0 | 0 | 254 | 75,6 | 1002,5 |
| 42 | Negrete | 05-05-2026 10:15 | 12,7 | 99,5 | 0,2 | 0 | 237 | 96,9 | 1001,9 |
| 41 | Negrete | 05-05-2026 10:00 | 12,4 | 99,6 | 0 | 0,5 | 240 | 71,9 | 1002,1 |
| 40 | Negrete | 05-05-2026 09:45 | 12,2 | 99,6 | 0 | 0 | 254 | 24,4 | 1003,1 |
| 39 | Negrete | 05-05-2026 09:30 | 12,1 | 99,6 | 0 | 0 | 271 | 49,4 | 1002,2 |
| 38 | Negrete | 05-05-2026 09:15 | 11,9 | 99,5 | 0 | 0 | 309 | 33,1 | 1002,1 |
| 37 | Negrete | 05-05-2026 09:00 | 11,7 | 99,5 | 0 | 0 | 18 | 28,1 | 1001,6 |
| 36 | Negrete | 05-05-2026 08:45 | 11,6 | 99,5 | 0 | 0 | 28 | 25,6 | 1002,1 |
| 35 | Negrete | 05-05-2026 08:30 | 11,5 | 99,5 | 0 | 0 | 67 | 24,4 | 1002,2 |
| 34 | Negrete | 05-05-2026 08:15 | 11,4 | 99,5 | 0 | 0 | 229 | 9,4 | 1002,6 |
| 33 | Negrete | 05-05-2026 08:00 | 11,2 | 99,4 | 0 | 0 | 225 | 5,6 | 1002,4 |
| 32 | Negrete | 05-05-2026 07:45 | 11,2 | 99,5 | 0 | 0 | 256 | 1,9 | 1002,6 |
| 31 | Negrete | 05-05-2026 07:30 | 11,2 | 99,5 | 0 | 0 | 327 | 0,6 | 1003,1 |
| 30 | Negrete | 05-05-2026 07:15 | 11,3 | 99,5 | 0 | 0 | 1 | 0,6 | 1002,8 |
| 29 | Negrete | 05-05-2026 07:00 | 11,4 | 99,5 | 0 | 0 | 338 | 0,6 | 1003,2 |
| 28 | Negrete | 05-05-2026 06:45 | 11,5 | 99,5 | 0 | 0 | 341 | 0,6 | 1003,4 |
| 27 | Negrete | 05-05-2026 06:30 | 11,2 | 99,4 | 0 | 0 | 289 | 0,6 | 1003,5 |
| 26 | Negrete | 05-05-2026 06:15 | 11,4 | 99,5 | 0 | 0 | 358 | 0,6 | 1003,9 |
| 25 | Negrete | 05-05-2026 06:00 | 11,2 | 99,5 | 0 | 0 | 0 | 0,6 | 1003,8 |
| 24 | Negrete | 05-05-2026 05:45 | 11,3 | 99,5 | 0 | 0 | 0 | 0,6 | 1003,7 |
| 23 | Negrete | 05-05-2026 05:30 | 11,4 | 99,5 | 0 | 0 | 0 | 0,6 | 1004,1 |
| 22 | Negrete | 05-05-2026 05:15 | 11,5 | 99,4 | 0 | 0 | 0 | 0,6 | 1004,3 |
| 21 | Negrete | 05-05-2026 05:00 | 11,5 | 99,4 | 0 | 0 | 358 | 0,6 | 1004,1 |
| 20 | Negrete | 05-05-2026 04:45 | 11,5 | 99,4 | 0,2 | 0 | 1 | 0,6 | 1003,9 |
| 19 | Negrete | 05-05-2026 04:30 | 11,3 | 99,4 | 0,2 | 0 | 333 | 0,6 | 1003,8 |
| 18 | Negrete | 05-05-2026 04:15 | 11,2 | 99,4 | 0 | 0 | 296 | 0,6 | 1003,8 |
| 17 | Negrete | 05-05-2026 04:00 | 11,2 | 99,3 | 0 | 0 | 285 | 0,6 | 1003,8 |
| 16 | Negrete | 05-05-2026 03:45 | 11,3 | 99,3 | 0,2 | 0 | 285 | 0,6 | 1003,8 |
| 15 | Negrete | 05-05-2026 03:30 | 11,4 | 99,3 | 0,2 | 0 | 285 | 0,6 | 1003,8 |
| 14 | Negrete | 05-05-2026 03:15 | 11,5 | 99,3 | 0,2 | 0 | 285 | 0,6 | 1003,9 |
| 13 | Negrete | 05-05-2026 03:00 | 11,4 | 99,3 | 0 | 0 | 285 | 0,6 | 1003,7 |
| 12 | Negrete | 05-05-2026 02:45 | 11,3 | 99,2 | 0 | 0 | 285 | 0,6 | 1003,4 |
| 11 | Negrete | 05-05-2026 02:30 | 11,5 | 99,3 | 0 | 0 | 285 | 0,6 | 1003,4 |
| 10 | Negrete | 05-05-2026 02:15 | 11,6 | 99,2 | 0 | 0 | 285 | 0,6 | 1003,9 |
| 9 | Negrete | 05-05-2026 02:00 | 11,4 | 99,1 | 0 | 0 | 285 | 0,6 | 1003,9 |
| 8 | Negrete | 05-05-2026 01:45 | 11,5 | 99,1 | 0 | 0 | 285 | 0,6 | 1003,8 |
| 7 | Negrete | 05-05-2026 01:30 | 11,7 | 99,1 | 0 | 0 | 285 | 0,6 | 1003,8 |
| 6 | Negrete | 05-05-2026 01:15 | 11,9 | 99,1 | 0 | 0 | 313 | 0,6 | 1004,1 |
| 5 | Negrete | 05-05-2026 01:00 | 12 | 99,1 | 0 | 0 | 358 | 0,6 | 1003,7 |
| 4 | Negrete | 05-05-2026 00:45 | 12 | 99,2 | 0 | 0 | 355 | 0,6 | 1003,7 |
| 3 | Negrete | 05-05-2026 00:30 | 12 | 99,3 | 0 | 0 | 352 | 0,6 | 1004,1 |
| 2 | Negrete | 05-05-2026 00:15 | 11,1 | 99,3 | 0 | 0 | 350 | 0,6 | 1003,7 |
| 1 | Negrete | 05-05-2026 00:00 | 11 | 99,1 | 0 | 0 | 348 | 0,6 | 1004,6 |